createdAt,value
2019-01-30T00:01:17.398Z,20.90
2019-01-30T00:03:45.051Z,20.90
2019-01-30T00:06:12.678Z,20.90
2019-01-30T00:08:40.298Z,20.90
2019-01-30T00:11:07.970Z,20.90
2019-01-30T00:13:35.793Z,20.90
2019-01-30T00:16:03.505Z,20.80
2019-01-30T00:18:31.118Z,20.90
2019-01-30T00:20:58.799Z,20.90
2019-01-30T00:23:27.825Z,20.90
2019-01-30T00:25:55.565Z,20.80
2019-01-30T00:28:23.298Z,20.90
2019-01-30T00:30:51.011Z,20.90
2019-01-30T00:33:18.683Z,20.80
2019-01-30T00:35:46.301Z,20.80
2019-01-30T00:38:14.074Z,20.80
2019-01-30T00:40:41.672Z,20.80
2019-01-30T00:43:09.349Z,20.80
2019-01-30T00:45:36.970Z,20.80
2019-01-30T00:48:04.574Z,20.80
2019-01-30T00:50:32.273Z,20.80
2019-01-30T00:52:59.893Z,20.80
2019-01-30T00:55:27.487Z,20.80
2019-01-30T00:57:55.144Z,20.80
2019-01-30T01:00:24.463Z,20.90
2019-01-30T01:02:52.096Z,20.80
2019-01-30T01:05:19.671Z,20.90
2019-01-30T01:07:47.321Z,20.80
2019-01-30T01:10:16.583Z,20.80
2019-01-30T01:12:44.258Z,20.80
2019-01-30T01:15:12.866Z,20.80
2019-01-30T01:17:40.473Z,20.80
2019-01-30T01:20:09.553Z,20.80
2019-01-30T01:22:37.270Z,20.80
2019-01-30T01:25:06.549Z,20.80
2019-01-30T01:27:34.155Z,20.80
2019-01-30T01:30:01.793Z,20.80
2019-01-30T01:32:29.383Z,20.80
2019-01-30T01:34:57.089Z,20.80
2019-01-30T01:37:24.749Z,20.80
2019-01-30T01:39:52.339Z,20.80
2019-01-30T01:42:19.996Z,20.80
2019-01-30T01:44:47.647Z,20.80
2019-01-30T01:47:15.232Z,20.80
2019-01-30T01:49:42.874Z,20.80
2019-01-30T01:52:10.491Z,20.80
2019-01-30T01:54:38.090Z,20.80
2019-01-30T01:57:05.749Z,20.80
2019-01-30T01:59:33.350Z,20.80
2019-01-30T02:02:00.944Z,20.80
2019-01-30T02:04:28.603Z,20.80
2019-01-30T02:06:56.222Z,20.80
2019-01-30T02:09:23.885Z,20.80
2019-01-30T02:11:54.380Z,20.80
2019-01-30T02:14:21.971Z,20.80
2019-01-30T02:16:49.721Z,20.80
2019-01-30T02:19:17.312Z,20.80
2019-01-30T02:21:45.024Z,20.80
2019-01-30T02:24:12.638Z,20.80
2019-01-30T02:26:40.235Z,20.80
2019-01-30T02:29:07.896Z,20.80
2019-01-30T02:31:35.474Z,20.80
2019-01-30T02:34:03.106Z,20.80
2019-01-30T02:36:30.718Z,20.80
2019-01-30T02:38:58.433Z,20.80
2019-01-30T02:41:26.078Z,20.80
2019-01-30T02:43:53.674Z,20.80
2019-01-30T02:46:21.345Z,20.80
2019-01-30T02:48:48.958Z,20.80
2019-01-30T02:51:16.603Z,20.80
2019-01-30T02:53:44.250Z,20.80
2019-01-30T02:56:11.864Z,20.80
2019-01-30T02:58:39.434Z,20.80
2019-01-30T03:01:07.158Z,20.80
2019-01-30T03:03:34.831Z,20.80
2019-01-30T03:06:02.418Z,20.80
2019-01-30T03:08:30.060Z,20.80
2019-01-30T03:10:57.644Z,20.80
2019-01-30T03:13:25.332Z,20.80
2019-01-30T03:15:52.934Z,20.80
2019-01-30T03:18:20.571Z,20.80
2019-01-30T03:20:48.170Z,20.80
2019-01-30T03:23:15.816Z,20.80
2019-01-30T03:25:43.470Z,20.80
2019-01-30T03:28:11.064Z,20.80
2019-01-30T03:30:38.720Z,20.80
2019-01-30T03:33:06.337Z,20.80
2019-01-30T03:35:34.230Z,20.80
2019-01-30T03:38:01.877Z,20.80
2019-01-30T03:40:29.720Z,20.80
2019-01-30T03:42:57.399Z,20.80
2019-01-30T03:45:25.036Z,20.80
2019-01-30T03:47:52.757Z,20.80
2019-01-30T03:50:20.339Z,20.80
2019-01-30T03:52:47.998Z,20.80
2019-01-30T03:55:16.266Z,20.80
2019-01-30T03:57:43.862Z,20.80
2019-01-30T04:00:13.074Z,20.80
2019-01-30T04:02:40.662Z,20.80
2019-01-30T04:05:08.284Z,20.80
2019-01-30T04:07:36.002Z,20.80
2019-01-30T04:10:05.283Z,20.80
2019-01-30T04:12:32.918Z,20.80
2019-01-30T04:15:00.566Z,20.80
2019-01-30T04:17:28.214Z,20.80
2019-01-30T04:19:55.860Z,20.80
2019-01-30T04:22:23.511Z,20.80
2019-01-30T04:24:51.178Z,20.80
2019-01-30T04:27:18.850Z,20.80
2019-01-30T04:29:46.520Z,20.80
2019-01-30T04:32:14.103Z,20.80
2019-01-30T04:34:41.724Z,20.80
2019-01-30T04:37:09.337Z,20.80
2019-01-30T04:39:37.072Z,20.80
2019-01-30T04:42:04.688Z,20.80
2019-01-30T04:44:32.351Z,20.80
2019-01-30T04:47:00.082Z,20.80
2019-01-30T04:49:27.726Z,20.80
2019-01-30T04:51:55.372Z,20.80
2019-01-30T04:54:22.974Z,20.80
2019-01-30T04:56:50.564Z,20.80
2019-01-30T04:59:18.206Z,20.80
2019-01-30T05:01:49.640Z,20.80
2019-01-30T05:04:15.169Z,20.80
2019-01-30T05:06:42.780Z,20.80
2019-01-30T05:09:10.594Z,20.80
2019-01-30T05:11:38.240Z,20.80
2019-01-30T05:14:05.842Z,20.80
2019-01-30T05:16:33.520Z,20.80
2019-01-30T05:19:01.098Z,20.80
2019-01-30T05:21:28.722Z,20.80
2019-01-30T05:23:56.468Z,20.80
2019-01-30T05:26:24.081Z,20.80
2019-01-30T05:28:51.678Z,20.80
2019-01-30T05:31:21.941Z,20.80
2019-01-30T05:33:48.738Z,20.80
2019-01-30T05:36:16.392Z,20.80
2019-01-30T05:38:43.981Z,20.80
2019-01-30T05:41:11.582Z,20.80
2019-01-30T05:43:39.242Z,20.80
2019-01-30T05:46:06.850Z,20.80
2019-01-30T05:48:34.712Z,20.80
2019-01-30T05:51:02.362Z,20.80
2019-01-30T05:53:29.973Z,20.80
2019-01-30T05:55:57.722Z,20.80
2019-01-30T05:58:25.334Z,20.80
2019-01-30T06:00:52.996Z,20.80
2019-01-30T06:03:20.713Z,20.80
2019-01-30T06:05:48.317Z,20.80
2019-01-30T06:08:16.066Z,20.80
2019-01-30T06:10:43.652Z,20.80
2019-01-30T06:13:11.283Z,20.80
2019-01-30T06:15:39.002Z,20.80
2019-01-30T06:18:06.673Z,20.80
2019-01-30T06:20:34.267Z,20.80
2019-01-30T06:23:02.028Z,20.80
2019-01-30T06:25:29.704Z,20.80
2019-01-30T06:27:57.301Z,20.80
2019-01-30T06:30:25.442Z,20.80
2019-01-30T06:32:53.085Z,20.80
2019-01-30T06:35:20.669Z,20.80
2019-01-30T06:37:48.444Z,20.80
2019-01-30T06:40:19.882Z,20.90
2019-01-30T06:42:47.562Z,21.00
2019-01-30T06:45:15.203Z,21.00
2019-01-30T06:47:42.807Z,20.90
2019-01-30T06:50:13.727Z,20.90
2019-01-30T06:52:41.305Z,20.90
2019-01-30T06:55:08.980Z,20.90
2019-01-30T06:57:36.603Z,20.90
2019-01-30T07:00:11.801Z,21.00
2019-01-30T07:02:39.433Z,21.00
2019-01-30T07:05:07.069Z,20.90
2019-01-30T07:07:34.741Z,20.90
2019-01-30T07:10:02.481Z,20.90
2019-01-30T07:12:30.147Z,20.90
2019-01-30T07:14:57.835Z,20.90
2019-01-30T07:17:25.429Z,20.90
2019-01-30T07:19:53.067Z,20.90
2019-01-30T07:22:20.663Z,20.90
2019-01-30T07:24:48.250Z,20.90
2019-01-30T07:27:15.921Z,20.90
2019-01-30T07:29:43.517Z,20.90
2019-01-30T07:32:11.103Z,20.90
2019-01-30T07:34:38.838Z,20.90
2019-01-30T07:37:06.425Z,20.90
2019-01-30T07:39:34.045Z,20.80
2019-01-30T07:42:01.698Z,20.80
2019-01-30T07:44:29.371Z,20.80
2019-01-30T07:46:56.977Z,20.80
2019-01-30T07:49:24.601Z,20.80
2019-01-30T07:51:52.273Z,20.80
2019-01-30T07:54:19.999Z,20.80
2019-01-30T07:56:47.623Z,20.80
2019-01-30T07:59:15.273Z,20.80
2019-01-30T08:01:42.989Z,20.80
2019-01-30T08:04:10.654Z,20.80
2019-01-30T08:06:38.306Z,20.80
2019-01-30T08:09:07.199Z,20.80
2019-01-30T08:11:34.787Z,20.80
2019-01-30T08:14:02.451Z,20.80
2019-01-30T08:16:30.110Z,20.80
2019-01-30T08:18:57.751Z,20.80
2019-01-30T08:21:27.924Z,20.80
2019-01-30T08:23:55.207Z,20.80
2019-01-30T08:26:24.017Z,20.80
2019-01-30T08:28:52.566Z,20.90
2019-01-30T08:31:20.584Z,20.80
2019-01-30T08:33:48.255Z,20.80
2019-01-30T08:36:15.878Z,20.80
2019-01-30T08:38:43.533Z,20.80
2019-01-30T08:41:11.145Z,20.80
2019-01-30T08:43:38.746Z,20.80
2019-01-30T08:46:06.481Z,20.80
2019-01-30T08:48:34.072Z,20.80
2019-01-30T08:51:01.673Z,20.80
2019-01-30T08:53:29.342Z,20.80
2019-01-30T08:55:57.135Z,20.80
2019-01-30T08:58:24.912Z,20.80
2019-01-30T09:00:52.506Z,20.80
2019-01-30T09:03:20.118Z,20.80
2019-01-30T09:05:47.839Z,20.80
2019-01-30T09:08:15.426Z,20.80
2019-01-30T09:10:43.075Z,20.80
2019-01-30T09:13:10.726Z,20.80
2019-01-30T09:15:38.297Z,20.80
2019-01-30T09:18:05.922Z,20.80
2019-01-30T09:20:33.609Z,20.80
2019-01-30T09:23:01.236Z,20.80
2019-01-30T09:25:29.761Z,20.80
2019-01-30T09:27:57.781Z,20.80
2019-01-30T09:30:26.525Z,20.80
2019-01-30T09:32:55.445Z,20.80
2019-01-30T09:35:23.318Z,20.70
2019-01-30T09:37:50.943Z,20.80
2019-01-30T09:40:19.258Z,20.80
2019-01-30T09:42:46.929Z,20.80
2019-01-30T09:45:18.105Z,20.80
2019-01-30T09:47:45.808Z,20.80
2019-01-30T09:50:15.100Z,20.80
2019-01-30T09:52:43.022Z,20.80
2019-01-30T09:55:11.755Z,20.80
2019-01-30T09:57:39.402Z,20.80
2019-01-30T10:00:08.668Z,20.80
2019-01-30T10:02:36.301Z,20.80
2019-01-30T10:05:05.392Z,20.80
2019-01-30T10:07:33.119Z,20.80
2019-01-30T10:10:00.735Z,20.80
2019-01-30T10:12:28.492Z,20.80
2019-01-30T10:14:56.165Z,20.80
2019-01-30T10:17:23.833Z,20.80
2019-01-30T10:19:51.485Z,20.80
2019-01-30T10:22:19.188Z,20.80
2019-01-30T10:24:46.878Z,20.80
2019-01-30T10:27:14.471Z,20.80
2019-01-30T10:29:42.128Z,20.80
2019-01-30T10:32:09.815Z,20.80
2019-01-30T10:34:37.544Z,20.80
2019-01-30T10:37:05.228Z,20.80
2019-01-30T10:39:32.937Z,20.80
2019-01-30T10:42:00.526Z,20.80
2019-01-30T10:44:28.146Z,20.80
2019-01-30T10:46:55.817Z,20.80
2019-01-30T10:49:23.430Z,20.80
2019-01-30T10:51:51.026Z,20.80
2019-01-30T10:54:18.680Z,20.80
2019-01-30T10:56:46.314Z,20.80
2019-01-30T10:59:14.006Z,20.80
2019-01-30T11:01:41.620Z,20.80
2019-01-30T11:04:09.272Z,20.80
2019-01-30T11:06:36.948Z,20.80
2019-01-30T11:09:06.153Z,20.80
2019-01-30T11:11:33.782Z,20.80
2019-01-30T11:14:01.374Z,20.80
2019-01-30T11:16:29.038Z,20.80
2019-01-30T11:18:56.652Z,20.80
2019-01-30T11:21:24.271Z,20.80
2019-01-30T11:23:53.556Z,20.80
2019-01-30T11:26:21.179Z,20.80
2019-01-30T11:28:48.837Z,20.80
2019-01-30T11:31:16.480Z,21.00
2019-01-30T11:33:44.078Z,20.80
2019-01-30T11:36:11.742Z,20.80
2019-01-30T11:38:39.401Z,20.80
2019-01-30T11:41:07.084Z,20.80
2019-01-30T11:43:34.779Z,20.80
2019-01-30T11:46:02.366Z,20.80
2019-01-30T11:48:29.994Z,20.90
2019-01-30T11:50:57.602Z,20.80
2019-01-30T11:53:25.334Z,20.80
2019-01-30T11:55:52.936Z,20.80
2019-01-30T11:58:20.592Z,20.80
2019-01-30T12:00:49.857Z,20.80
2019-01-30T12:03:17.455Z,20.80
2019-01-30T12:05:45.116Z,20.80
2019-01-30T12:08:12.790Z,20.80
2019-01-30T12:10:40.384Z,20.80
2019-01-30T12:13:08.034Z,20.80
2019-01-30T12:15:35.639Z,20.80
2019-01-30T12:18:03.293Z,20.80
2019-01-30T12:20:30.982Z,20.80
2019-01-30T12:22:58.624Z,20.80
2019-01-30T12:25:26.314Z,20.80
2019-01-30T12:27:53.905Z,20.80
2019-01-30T12:30:23.127Z,20.80
2019-01-30T12:32:50.818Z,20.80
2019-01-30T12:35:18.511Z,20.80
2019-01-30T12:37:46.156Z,20.80
2019-01-30T12:40:17.486Z,20.80
2019-01-30T12:42:45.064Z,20.80
2019-01-30T12:45:15.139Z,20.80
2019-01-30T12:47:42.879Z,20.80
2019-01-30T12:50:10.843Z,20.80
2019-01-30T12:52:38.476Z,20.80
2019-01-30T12:55:07.172Z,20.80
2019-01-30T12:57:34.880Z,20.80
2019-01-30T13:00:02.466Z,20.80
2019-01-30T13:02:30.143Z,20.80
2019-01-30T13:04:57.798Z,20.80
2019-01-30T13:07:25.407Z,20.80
2019-01-30T13:09:53.073Z,20.80
2019-01-30T13:12:20.673Z,20.80
2019-01-30T13:14:48.252Z,20.80
2019-01-30T13:17:15.922Z,20.80
2019-01-30T13:19:43.579Z,20.80
2019-01-30T13:22:11.170Z,20.80
2019-01-30T13:24:38.831Z,20.80
2019-01-30T13:27:06.442Z,20.80
2019-01-30T13:29:34.110Z,20.80
2019-01-30T13:32:01.770Z,20.80
2019-01-30T13:34:29.354Z,20.80
2019-01-30T13:36:56.941Z,20.80
2019-01-30T13:39:24.586Z,20.80
2019-01-30T13:41:52.748Z,20.80
2019-01-30T13:44:20.498Z,20.80
2019-01-30T13:46:48.115Z,20.80
2019-01-30T13:49:15.837Z,20.80
2019-01-30T13:51:43.492Z,20.80
2019-01-30T13:54:11.073Z,20.80
2019-01-30T13:56:38.726Z,20.80
2019-01-30T13:59:06.324Z,20.80
2019-01-30T14:01:33.954Z,20.80
2019-01-30T14:04:01.642Z,20.80
2019-01-30T14:06:30.250Z,20.80
2019-01-30T14:08:57.914Z,20.80
2019-01-30T14:11:25.574Z,20.80
2019-01-30T14:13:53.260Z,20.80
2019-01-30T14:16:20.875Z,20.80
2019-01-30T14:18:48.576Z,20.80
2019-01-30T14:21:16.256Z,20.80
2019-01-30T14:23:43.953Z,20.80
2019-01-30T14:26:11.619Z,20.80
2019-01-30T14:28:39.248Z,20.80
2019-01-30T14:31:07.041Z,20.80
2019-01-30T14:33:34.766Z,20.80
2019-01-30T14:36:02.427Z,20.80
2019-01-30T14:38:30.009Z,20.80
2019-01-30T14:40:57.745Z,20.70
2019-01-30T14:43:25.424Z,20.80
2019-01-30T14:45:53.154Z,20.80
2019-01-30T14:48:20.891Z,20.70
2019-01-30T14:50:48.581Z,20.80
2019-01-30T14:53:16.265Z,20.80
2019-01-30T14:55:43.984Z,20.80
2019-01-30T14:58:11.657Z,20.80
2019-01-30T15:00:39.289Z,20.80
2019-01-30T15:03:07.026Z,20.80
2019-01-30T15:05:34.710Z,20.80
2019-01-30T15:08:02.389Z,20.70
2019-01-30T15:10:30.166Z,20.70
2019-01-30T15:12:57.918Z,20.80
2019-01-30T15:15:26.455Z,20.80
2019-01-30T15:17:54.072Z,20.80
2019-01-30T15:20:22.655Z,20.80
2019-01-30T15:22:50.300Z,20.80
2019-01-30T15:25:18.778Z,20.80
2019-01-30T15:27:46.405Z,20.80
2019-01-30T15:30:15.641Z,20.80
2019-01-30T15:32:43.249Z,20.80
2019-01-30T15:35:10.831Z,20.80
2019-01-30T15:37:38.506Z,20.70
2019-01-30T15:40:10.696Z,20.80
2019-01-30T15:42:48.980Z,20.80
2019-01-30T15:45:10.054Z,20.80
2019-01-30T15:47:37.837Z,20.80
2019-01-30T15:50:10.186Z,20.80
2019-01-30T15:52:37.984Z,20.80
2019-01-30T15:55:07.103Z,20.80
2019-01-30T15:57:34.759Z,20.70
2019-01-30T16:00:02.333Z,20.80
2019-01-30T16:02:29.916Z,20.80
2019-01-30T16:04:57.553Z,20.80
2019-01-30T16:07:25.151Z,20.80
2019-01-30T16:09:53.003Z,20.80
2019-01-30T16:12:20.669Z,20.80
2019-01-30T16:14:48.305Z,20.80
2019-01-30T16:17:15.993Z,20.80
2019-01-30T16:19:43.604Z,20.80
2019-01-30T16:22:11.342Z,20.80
2019-01-30T16:24:39.005Z,20.80
2019-01-30T16:27:06.623Z,20.80
2019-01-30T16:29:34.408Z,20.80
2019-01-30T16:32:02.061Z,20.80
2019-01-30T16:34:29.675Z,20.80
2019-01-30T16:36:57.386Z,20.80
2019-01-30T16:39:25.003Z,20.80
2019-01-30T16:41:52.643Z,20.90
2019-01-30T16:44:20.357Z,21.00
2019-01-30T16:46:48.004Z,21.00
2019-01-30T16:49:15.626Z,21.10
2019-01-30T16:51:43.296Z,21.10
2019-01-30T16:54:10.954Z,21.20
2019-01-30T16:56:38.539Z,21.30
2019-01-30T16:59:06.204Z,21.40
2019-01-30T17:01:33.988Z,21.40
2019-01-30T17:04:01.650Z,21.60
2019-01-30T17:06:29.302Z,21.90
2019-01-30T17:08:56.902Z,22.00
2019-01-30T17:11:24.511Z,22.20
2019-01-30T17:13:53.798Z,22.30
2019-01-30T17:16:21.430Z,22.40
2019-01-30T17:18:49.052Z,21.90
2019-01-30T17:21:16.709Z,21.70
2019-01-30T17:23:44.358Z,21.70
2019-01-30T17:26:11.960Z,21.50
2019-01-30T17:28:39.619Z,21.40
2019-01-30T17:31:07.267Z,21.10
2019-01-30T17:33:34.832Z,21.10
2019-01-30T17:36:02.416Z,21.50
2019-01-30T17:38:30.115Z,21.50
2019-01-30T17:40:57.772Z,21.50
2019-01-30T17:43:25.486Z,21.50
2019-01-30T17:45:53.100Z,21.50
2019-01-30T17:48:20.742Z,21.50
2019-01-30T17:50:48.394Z,21.60
2019-01-30T17:53:16.032Z,21.50
2019-01-30T17:55:43.712Z,21.50
2019-01-30T17:58:11.377Z,21.60
2019-01-30T18:01:00.763Z,21.60
2019-01-30T18:03:28.447Z,21.60
2019-01-30T18:05:56.097Z,21.60
2019-01-30T18:08:23.729Z,21.70
2019-01-30T18:10:51.446Z,21.70
2019-01-30T18:13:19.120Z,21.70
2019-01-30T18:15:46.736Z,21.70
2019-01-30T18:18:14.398Z,21.70
2019-01-30T18:20:42.050Z,21.70
2019-01-30T18:23:09.661Z,21.60
2019-01-30T18:25:37.257Z,21.70
2019-01-30T18:28:04.905Z,21.60
2019-01-30T18:30:32.568Z,21.70
2019-01-30T18:33:00.261Z,21.70
2019-01-30T18:35:27.962Z,21.80
2019-01-30T18:37:55.566Z,21.80
2019-01-30T18:40:27.666Z,21.80
2019-01-30T18:42:55.277Z,21.80
2019-01-30T18:45:24.674Z,21.80
2019-01-30T18:47:52.496Z,21.80
2019-01-30T18:50:21.754Z,21.80
2019-01-30T18:52:49.481Z,21.80
2019-01-30T18:55:17.177Z,21.80
2019-01-30T18:57:44.827Z,21.80
2019-01-30T19:00:22.926Z,21.80
2019-01-30T19:02:50.520Z,21.80
2019-01-30T19:05:18.162Z,21.80
2019-01-30T19:07:45.738Z,21.80
2019-01-30T19:10:14.794Z,21.80
2019-01-30T19:12:42.463Z,21.80
2019-01-30T19:15:11.983Z,21.80
2019-01-30T19:17:39.612Z,21.80
2019-01-30T19:20:08.891Z,21.80
2019-01-30T19:22:36.538Z,21.80
2019-01-30T19:25:05.120Z,21.80
2019-01-30T19:27:32.784Z,21.80
2019-01-30T19:30:00.448Z,21.80
2019-01-30T19:32:28.192Z,21.70
2019-01-30T19:34:55.787Z,21.70
2019-01-30T19:37:23.457Z,21.70
2019-01-30T19:39:51.140Z,21.70
2019-01-30T19:42:18.742Z,21.70
2019-01-30T19:44:46.358Z,21.70
2019-01-30T19:47:14.027Z,21.70
2019-01-30T19:49:41.688Z,21.70
2019-01-30T19:52:09.376Z,21.70
2019-01-30T19:54:37.006Z,21.60
2019-01-30T19:57:04.617Z,21.60
2019-01-30T19:59:32.266Z,21.80
2019-01-30T20:01:59.873Z,21.90
2019-01-30T20:04:27.616Z,21.90
2019-01-30T20:06:55.337Z,21.80
2019-01-30T20:09:23.307Z,21.80
2019-01-30T20:11:50.895Z,21.70
2019-01-30T20:14:18.547Z,21.70
2019-01-30T20:16:46.141Z,21.70
2019-01-30T20:19:13.803Z,21.60
2019-01-30T20:21:41.855Z,21.60
2019-01-30T20:24:09.474Z,21.60
2019-01-30T20:26:37.103Z,21.60
2019-01-30T20:29:04.751Z,21.60
2019-01-30T20:31:32.325Z,21.60
2019-01-30T20:34:09.773Z,21.60
2019-01-30T20:36:29.405Z,21.50
2019-01-30T20:38:57.061Z,21.50
2019-01-30T20:41:24.734Z,21.50
2019-01-30T20:43:56.209Z,21.50
2019-01-30T20:46:28.811Z,21.50
2019-01-30T20:48:56.604Z,21.50
2019-01-30T20:51:24.318Z,21.50
2019-01-30T20:53:56.271Z,21.50
2019-01-30T20:56:24.133Z,21.40
2019-01-30T20:58:51.891Z,21.50
2019-01-30T21:01:19.647Z,21.50
2019-01-30T21:03:47.350Z,21.50
2019-01-30T21:06:14.996Z,21.50
2019-01-30T21:08:42.666Z,21.50
2019-01-30T21:11:10.274Z,21.50
2019-01-30T21:13:37.945Z,21.50
2019-01-30T21:16:05.674Z,21.50
2019-01-30T21:18:33.293Z,21.50
2019-01-30T21:21:00.983Z,21.40
2019-01-30T21:23:28.599Z,21.50
2019-01-30T21:25:56.286Z,21.50
2019-01-30T21:28:23.884Z,21.40
2019-01-30T21:30:51.520Z,21.40
2019-01-30T21:33:19.179Z,21.40
2019-01-30T21:35:46.810Z,21.40
2019-01-30T21:38:14.433Z,21.40
2019-01-30T21:40:42.078Z,21.40
2019-01-30T21:43:09.746Z,21.40
2019-01-30T21:45:37.365Z,21.30
2019-01-30T21:48:05.146Z,21.30
2019-01-30T21:50:32.882Z,21.30
2019-01-30T21:53:00.501Z,21.30
2019-01-30T21:55:28.163Z,21.30
2019-01-30T21:57:55.838Z,21.30
2019-01-30T22:00:24.276Z,21.30
2019-01-30T22:02:52.048Z,21.30
2019-01-30T22:05:19.760Z,21.30
2019-01-30T22:07:47.394Z,21.30
2019-01-30T22:10:16.214Z,21.30
2019-01-30T22:12:43.871Z,21.30
2019-01-30T22:15:12.420Z,21.30
2019-01-30T22:17:40.149Z,21.30
2019-01-30T22:20:09.489Z,21.30
2019-01-30T22:22:37.104Z,21.20
2019-01-30T22:25:06.095Z,21.30
2019-01-30T22:27:33.707Z,21.20
2019-01-30T22:30:01.444Z,21.20
2019-01-30T22:32:29.121Z,21.30
2019-01-30T22:34:56.739Z,21.20
2019-01-30T22:37:24.454Z,21.30
2019-01-30T22:39:52.026Z,21.20
2019-01-30T22:42:19.662Z,21.20
2019-01-30T22:44:47.262Z,21.20
2019-01-30T22:47:14.863Z,21.20
2019-01-30T22:49:42.571Z,21.20
2019-01-30T22:52:10.219Z,21.20
2019-01-30T22:54:37.833Z,21.20
2019-01-30T22:57:05.483Z,21.20
2019-01-30T22:59:33.090Z,21.20
2019-01-30T23:02:00.830Z,21.20
2019-01-30T23:04:32.965Z,21.20
2019-01-30T23:07:02.287Z,21.20
2019-01-30T23:09:31.555Z,21.20
2019-01-30T23:12:00.777Z,21.20
2019-01-30T23:14:28.415Z,21.20
2019-01-30T23:16:57.649Z,21.20
2019-01-30T23:19:26.891Z,21.20
2019-01-30T23:22:02.335Z,21.20
2019-01-30T23:24:31.651Z,21.20
2019-01-30T23:27:06.607Z,21.20
2019-01-30T23:29:44.930Z,21.20
2019-01-30T23:32:17.116Z,21.20
2019-01-30T23:34:52.409Z,21.20
2019-01-30T23:37:27.390Z,21.20
2019-01-30T23:40:11.850Z,21.20
2019-01-30T23:42:50.017Z,21.20
2019-01-30T23:45:21.785Z,21.20
2019-01-30T23:47:54.002Z,21.20
2019-01-30T23:50:23.277Z,21.20
2019-01-30T23:52:52.634Z,21.10
2019-01-30T23:55:38.218Z,21.10
2019-01-30T23:58:25.593Z,21.10
